createdAt,value
2023-01-21T00:02:23.394Z,2.36
2023-01-21T00:04:49.873Z,2.58
2023-01-21T00:07:16.360Z,2.38
2023-01-21T00:09:42.821Z,2.65
2023-01-21T00:12:09.277Z,2.85
2023-01-21T00:14:35.696Z,2.77
2023-01-21T00:17:02.080Z,2.34
2023-01-21T00:19:29.574Z,2.58
2023-01-21T00:21:56.013Z,2.76
2023-01-21T00:24:25.235Z,2.38
2023-01-21T00:26:52.892Z,2.36
2023-01-21T00:29:20.204Z,2.65
2023-01-21T00:31:46.669Z,2.63
2023-01-21T00:34:13.306Z,2.72
2023-01-21T00:36:39.751Z,2.72
2023-01-21T00:39:07.891Z,2.47
2023-01-21T00:41:34.373Z,2.44
2023-01-21T00:44:00.808Z,2.72
2023-01-21T00:46:27.739Z,2.55
2023-01-21T00:48:56.029Z,2.46
2023-01-21T00:51:23.501Z,2.00
2023-01-21T00:53:50.009Z,2.17
2023-01-21T00:56:16.408Z,1.97
2023-01-21T00:58:46.163Z,2.40
2023-01-21T01:01:18.671Z,2.51
2023-01-21T01:03:46.651Z,2.16
2023-01-21T01:06:22.280Z,2.38
2023-01-21T01:08:52.586Z,2.56
2023-01-21T01:11:21.516Z,2.71
2023-01-21T01:13:47.967Z,2.29
2023-01-21T01:16:16.436Z,2.43
2023-01-21T01:18:43.569Z,1.95
2023-01-21T01:21:15.953Z,2.52
2023-01-21T01:23:42.903Z,2.84
2023-01-21T01:26:15.522Z,2.98
2023-01-21T01:28:42.685Z,2.90
2023-01-21T01:31:12.930Z,2.94
2023-01-21T01:33:40.113Z,2.92
2023-01-21T01:36:10.542Z,3.17
2023-01-21T01:38:36.942Z,2.37
2023-01-21T01:41:04.348Z,2.78
2023-01-21T01:43:51.322Z,2.96
2023-01-21T01:46:17.985Z,2.60
2023-01-21T01:48:48.724Z,2.07
2023-01-21T01:51:17.785Z,2.60
2023-01-21T01:53:45.482Z,2.51
2023-01-21T01:56:12.371Z,1.32
2023-01-21T01:58:39.876Z,2.05
2023-01-21T02:01:06.626Z,1.46
2023-01-21T02:03:49.227Z,2.32
2023-01-21T02:06:17.707Z,2.62
2023-01-21T02:08:47.685Z,1.54
2023-01-21T02:11:19.795Z,2.04
2023-01-21T02:13:53.284Z,2.11
2023-01-21T02:17:01.054Z,1.78
2023-01-21T02:19:51.903Z,2.81
2023-01-21T02:22:30.744Z,2.29
2023-01-21T02:25:21.377Z,2.63
2023-01-21T02:28:05.965Z,2.72
2023-01-21T02:30:47.201Z,2.36
2023-01-21T02:33:22.606Z,1.97
2023-01-21T02:36:15.169Z,1.88
2023-01-21T02:38:53.641Z,1.87
2023-01-21T02:41:56.130Z,1.53
2023-01-21T02:44:37.373Z,2.05
2023-01-21T02:47:09.540Z,1.83
2023-01-21T02:49:59.606Z,1.64
2023-01-21T02:52:26.406Z,2.88
2023-01-21T02:54:55.832Z,1.29
2023-01-21T02:57:47.058Z,2.46
2023-01-21T03:00:22.221Z,2.66
2023-01-21T03:03:13.278Z,3.50
2023-01-21T03:06:01.211Z,3.85
2023-01-21T03:08:40.643Z,3.67
2023-01-21T03:11:16.838Z,3.90
2023-01-21T03:14:07.960Z,3.45
2023-01-21T03:16:59.403Z,3.77
2023-01-21T03:19:35.583Z,3.89
2023-01-21T03:22:06.606Z,3.61
2023-01-21T03:24:34.545Z,3.73
2023-01-21T03:27:02.584Z,3.53
2023-01-21T03:29:30.925Z,3.51
2023-01-21T03:32:03.917Z,3.17
2023-01-21T03:34:34.595Z,3.42
2023-01-21T03:37:21.225Z,2.65
2023-01-21T03:39:59.800Z,2.18
2023-01-21T03:42:27.081Z,2.87
2023-01-21T03:44:53.951Z,3.09
2023-01-21T03:47:31.280Z,3.50
2023-01-21T03:50:13.659Z,3.37
2023-01-21T03:52:41.564Z,2.42
2023-01-21T03:55:08.747Z,2.74
2023-01-21T03:57:35.254Z,3.30
2023-01-21T04:00:02.167Z,3.65
2023-01-21T04:02:28.670Z,2.45
2023-01-21T04:04:55.118Z,3.40
2023-01-21T04:07:21.592Z,3.53
2023-01-21T04:09:49.768Z,3.35
2023-01-21T04:12:16.771Z,3.66
2023-01-21T04:14:43.332Z,4.22
2023-01-21T04:17:09.875Z,4.34
2023-01-21T04:19:36.314Z,4.25
2023-01-21T04:22:02.750Z,4.57
2023-01-21T04:24:29.167Z,4.05
2023-01-21T04:26:55.645Z,4.24
2023-01-21T04:29:22.309Z,4.28
2023-01-21T04:31:48.909Z,3.70
2023-01-21T04:34:16.675Z,3.53
2023-01-21T04:36:43.100Z,4.15
2023-01-21T04:39:11.255Z,4.29
2023-01-21T04:41:37.690Z,3.51
2023-01-21T04:44:04.254Z,3.37
2023-01-21T04:46:30.658Z,3.03
2023-01-21T04:48:57.067Z,3.69
2023-01-21T04:51:23.462Z,3.43
2023-01-21T04:53:49.889Z,2.54
2023-01-21T04:56:16.338Z,2.73
2023-01-21T04:58:42.841Z,2.68
2023-01-21T05:01:09.361Z,3.33
2023-01-21T05:03:35.804Z,3.01
2023-01-21T05:06:02.223Z,2.91
2023-01-21T05:08:28.635Z,3.32
2023-01-21T05:10:55.057Z,3.60
2023-01-21T05:13:21.501Z,2.04
2023-01-21T05:15:47.959Z,2.37
2023-01-21T05:18:14.462Z,1.48
2023-01-21T05:20:40.899Z,1.69
2023-01-21T05:23:07.482Z,2.21
2023-01-21T05:25:34.067Z,1.76
2023-01-21T05:28:00.557Z,2.16
2023-01-21T05:30:27.085Z,2.26
2023-01-21T05:32:54.765Z,1.83
2023-01-21T05:35:22.828Z,1.39
2023-01-21T05:37:49.379Z,1.85
2023-01-21T05:40:16.935Z,1.20
2023-01-21T05:42:44.287Z,1.76
2023-01-21T05:45:14.261Z,2.04
2023-01-21T05:47:40.739Z,2.39
2023-01-21T05:50:07.953Z,1.16
2023-01-21T05:52:34.386Z,1.16
2023-01-21T05:55:02.454Z,2.23
2023-01-21T05:57:30.278Z,0.92
2023-01-21T05:59:56.924Z,1.14
2023-01-21T06:02:24.950Z,1.63
2023-01-21T06:04:51.392Z,1.65
2023-01-21T06:07:18.771Z,1.14
2023-01-21T06:09:45.255Z,0.95
2023-01-21T06:12:11.671Z,2.66
2023-01-21T06:14:38.098Z,2.61
2023-01-21T06:17:04.632Z,1.46
2023-01-21T06:19:31.183Z,0.45
2023-01-21T06:21:57.622Z,1.33
2023-01-21T06:24:24.032Z,1.03
2023-01-21T06:26:50.416Z,1.29
2023-01-21T06:29:16.956Z,1.41
2023-01-21T06:31:43.447Z,1.99
2023-01-21T06:34:12.459Z,0.95
2023-01-21T06:36:40.858Z,1.09
2023-01-21T06:39:07.283Z,1.45
2023-01-21T06:41:33.728Z,1.98
2023-01-21T06:44:00.145Z,1.72
2023-01-21T06:46:26.659Z,1.44
2023-01-21T06:48:54.276Z,1.17
2023-01-21T06:51:20.756Z,1.65
2023-01-21T06:53:47.213Z,1.05
2023-01-21T06:56:13.638Z,0.97
2023-01-21T06:58:40.024Z,1.64
2023-01-21T07:01:06.491Z,2.39
2023-01-21T07:03:32.962Z,2.33
2023-01-21T07:05:59.381Z,1.63
2023-01-21T07:08:25.802Z,1.93
2023-01-21T07:10:52.298Z,1.50
2023-01-21T07:13:18.697Z,2.18
2023-01-21T07:15:45.147Z,2.83
2023-01-21T07:18:11.569Z,2.32
2023-01-21T07:20:40.913Z,2.25
2023-01-21T07:23:07.429Z,2.56
2023-01-21T07:25:36.024Z,1.57
2023-01-21T07:28:02.491Z,1.77
2023-01-21T07:30:28.896Z,1.59
2023-01-21T07:32:55.316Z,1.79
2023-01-21T07:35:21.738Z,1.88
2023-01-21T07:37:48.178Z,1.56
2023-01-21T07:40:14.698Z,1.73
2023-01-21T07:42:41.096Z,3.13
2023-01-21T07:45:08.509Z,2.03
2023-01-21T07:47:34.982Z,2.49
2023-01-21T07:50:04.983Z,2.91
2023-01-21T07:52:32.163Z,1.85
2023-01-21T07:54:58.627Z,2.58
2023-01-21T07:57:25.099Z,2.25
2023-01-21T07:59:51.493Z,1.82
2023-01-21T08:02:17.948Z,1.94
2023-01-21T08:04:44.451Z,3.11
2023-01-21T08:07:13.184Z,2.52
2023-01-21T08:09:40.119Z,2.70
2023-01-21T08:12:07.499Z,2.30
2023-01-21T08:14:34.355Z,2.62
2023-01-21T08:17:01.155Z,2.50
2023-01-21T08:19:27.599Z,2.33
2023-01-21T08:21:54.037Z,2.91
2023-01-21T08:24:20.493Z,2.75
2023-01-21T08:26:46.936Z,2.76
2023-01-21T08:29:13.337Z,2.44
2023-01-21T08:31:39.931Z,3.33
2023-01-21T08:34:06.430Z,3.64
2023-01-21T08:36:32.937Z,3.29
2023-01-21T08:39:01.778Z,2.93
2023-01-21T08:41:28.331Z,3.07
2023-01-21T08:43:54.706Z,3.53
2023-01-21T08:46:21.138Z,3.33
2023-01-21T08:48:47.577Z,3.75
2023-01-21T08:51:14.139Z,3.81
2023-01-21T08:53:40.599Z,2.89
2023-01-21T08:56:07.132Z,3.19
2023-01-21T08:58:33.803Z,2.58
2023-01-21T09:01:07.682Z,4.02
2023-01-21T09:03:34.159Z,4.16
2023-01-21T09:06:02.124Z,4.41
2023-01-21T09:08:29.273Z,4.21
2023-01-21T09:11:02.515Z,4.31
2023-01-21T09:13:37.839Z,4.43
2023-01-21T09:16:15.676Z,3.82
2023-01-21T09:18:43.093Z,3.92
2023-01-21T09:21:10.856Z,4.55
2023-01-21T09:23:38.534Z,4.66
2023-01-21T09:26:18.284Z,4.48
2023-01-21T09:28:47.827Z,3.90
2023-01-21T09:31:16.748Z,4.72
2023-01-21T09:33:45.667Z,4.03
2023-01-21T09:36:21.968Z,4.14
2023-01-21T09:38:49.634Z,4.48
2023-01-21T09:41:24.844Z,3.86
2023-01-21T09:44:06.012Z,3.82
2023-01-21T09:46:53.038Z,4.57
2023-01-21T09:49:28.033Z,4.36
2023-01-21T09:52:24.491Z,4.56
2023-01-21T09:54:51.095Z,4.84
2023-01-21T09:57:26.301Z,4.60
2023-01-21T10:00:18.477Z,4.76
2023-01-21T10:03:16.261Z,4.96
2023-01-21T10:05:50.724Z,4.59
2023-01-21T10:08:38.416Z,4.84
2023-01-21T10:11:46.059Z,4.82
2023-01-21T10:14:24.972Z,4.72
2023-01-21T10:17:10.205Z,4.54
2023-01-21T10:19:46.327Z,4.87
2023-01-21T10:22:17.260Z,4.33
2023-01-21T10:24:49.664Z,4.30
2023-01-21T10:27:21.219Z,4.61
2023-01-21T10:29:52.727Z,4.88
2023-01-21T10:32:24.555Z,4.95
2023-01-21T10:34:52.820Z,4.93
2023-01-21T10:37:41.060Z,4.22
2023-01-21T10:40:48.541Z,4.64
2023-01-21T10:43:46.423Z,4.57
2023-01-21T10:46:31.308Z,4.84
2023-01-21T10:49:20.732Z,5.08
2023-01-21T10:52:03.617Z,4.41
2023-01-21T10:54:51.856Z,4.02
2023-01-21T10:57:33.496Z,4.46
2023-01-21T11:00:02.711Z,4.96
2023-01-21T11:02:34.059Z,3.79
2023-01-21T11:05:04.311Z,4.71
2023-01-21T11:07:38.947Z,4.86
2023-01-21T11:10:07.117Z,4.70
2023-01-21T11:12:33.584Z,4.29
2023-01-21T11:15:12.361Z,4.84
2023-01-21T11:17:41.451Z,3.88
2023-01-21T11:20:28.206Z,5.07
2023-01-21T11:22:54.992Z,4.91
2023-01-21T11:25:31.907Z,4.31
2023-01-21T11:27:58.314Z,5.02
2023-01-21T11:30:50.943Z,4.85
2023-01-21T11:33:27.514Z,5.00
2023-01-21T11:35:55.203Z,4.22
2023-01-21T11:38:35.318Z,5.36
2023-01-21T11:41:01.709Z,4.92
2023-01-21T11:43:40.070Z,5.11
2023-01-21T11:46:35.427Z,3.86
2023-01-21T11:49:08.064Z,4.67
2023-01-21T11:51:42.383Z,5.54
2023-01-21T11:54:23.337Z,4.05
2023-01-21T11:56:52.602Z,5.03
2023-01-21T11:59:25.960Z,4.99
2023-01-21T12:02:15.920Z,4.23
2023-01-21T12:04:52.297Z,5.38
2023-01-21T12:07:32.064Z,5.37
2023-01-21T12:10:14.534Z,5.31
2023-01-21T12:12:59.231Z,4.92
2023-01-21T12:15:56.174Z,5.21
2023-01-21T12:18:25.617Z,5.22
2023-01-21T12:21:05.441Z,4.32
2023-01-21T12:23:41.013Z,4.74
2023-01-21T12:26:36.687Z,4.60
2023-01-21T12:29:24.997Z,5.16
2023-01-21T12:32:05.936Z,6.02
2023-01-21T12:34:40.006Z,5.44
2023-01-21T12:37:12.479Z,6.41
2023-01-21T12:39:40.996Z,6.45
2023-01-21T12:42:29.181Z,4.89
2023-01-21T12:45:01.326Z,6.04
2023-01-21T12:47:36.011Z,6.64
2023-01-21T12:50:35.160Z,4.65
2023-01-21T12:53:44.460Z,4.68
2023-01-21T12:56:37.272Z,5.47
2023-01-21T12:59:15.954Z,4.87
2023-01-21T13:01:52.511Z,6.05
2023-01-21T13:04:42.073Z,4.86
2023-01-21T13:07:31.872Z,5.38
2023-01-21T13:10:15.426Z,5.01
2023-01-21T13:12:46.362Z,6.13
2023-01-21T13:15:18.606Z,6.05
2023-01-21T13:17:52.222Z,4.97
2023-01-21T13:20:21.316Z,5.03
2023-01-21T13:23:20.149Z,4.80
2023-01-21T13:25:56.992Z,5.68
2023-01-21T13:28:29.074Z,6.06
2023-01-21T13:31:20.092Z,5.80
2023-01-21T13:33:47.430Z,6.23
2023-01-21T13:36:29.340Z,5.55
2023-01-21T13:39:11.173Z,6.37
2023-01-21T13:41:54.340Z,5.27
2023-01-21T13:44:56.783Z,6.01
2023-01-21T13:47:29.794Z,5.79
2023-01-21T13:50:18.087Z,6.56
2023-01-21T13:53:23.237Z,4.60
2023-01-21T13:56:07.711Z,5.69
2023-01-21T13:58:53.530Z,5.53
2023-01-21T14:01:23.065Z,5.06
2023-01-21T14:04:15.737Z,5.94
2023-01-21T14:07:03.996Z,5.77
2023-01-21T14:09:38.681Z,5.33
2023-01-21T14:12:20.935Z,5.22
2023-01-21T14:15:19.887Z,5.27
2023-01-21T14:18:12.802Z,5.12
2023-01-21T14:21:07.177Z,6.05
2023-01-21T14:23:49.487Z,5.41
2023-01-21T14:26:48.298Z,6.00
2023-01-21T14:29:23.276Z,4.59
2023-01-21T14:32:03.789Z,4.88
2023-01-21T14:34:39.501Z,6.17
2023-01-21T14:37:30.794Z,5.64
2023-01-21T14:40:17.033Z,5.64
2023-01-21T14:42:49.387Z,6.23
2023-01-21T14:45:25.706Z,6.48
2023-01-21T14:47:54.251Z,5.88
2023-01-21T14:50:55.063Z,5.27
2023-01-21T14:53:26.174Z,5.93
2023-01-21T14:56:26.596Z,6.12
2023-01-21T14:59:06.488Z,6.30
2023-01-21T15:01:47.056Z,6.48
2023-01-21T15:04:23.167Z,6.36
2023-01-21T15:06:51.893Z,6.27
2023-01-21T15:09:28.378Z,5.80
2023-01-21T15:12:05.624Z,6.61
2023-01-21T15:14:39.121Z,5.86
2023-01-21T15:17:45.038Z,5.97
2023-01-21T15:20:39.480Z,6.52
2023-01-21T15:23:36.151Z,5.63
2023-01-21T15:26:02.560Z,6.03
2023-01-21T15:28:55.689Z,5.58
2023-01-21T15:31:23.277Z,5.41
2023-01-21T15:33:55.388Z,4.80
2023-01-21T15:36:24.870Z,5.60
2023-01-21T15:38:54.083Z,5.69
2023-01-21T15:41:56.327Z,6.03
2023-01-21T15:44:48.052Z,4.90
2023-01-21T15:47:30.135Z,6.05
2023-01-21T15:50:18.063Z,5.39
2023-01-21T15:53:09.563Z,5.40
2023-01-21T15:56:08.314Z,5.23
2023-01-21T15:58:43.895Z,5.05
2023-01-21T16:01:26.769Z,5.55
2023-01-21T16:04:11.320Z,5.49
2023-01-21T16:07:02.527Z,5.28
2023-01-21T16:09:35.043Z,5.26
2023-01-21T16:12:14.665Z,5.73
2023-01-21T16:15:24.345Z,5.72
2023-01-21T16:17:59.792Z,6.04
2023-01-21T16:20:26.271Z,4.53
2023-01-21T16:22:56.782Z,4.40
2023-01-21T16:25:25.396Z,5.79
2023-01-21T16:27:53.746Z,5.84
2023-01-21T16:30:22.692Z,4.20
2023-01-21T16:33:13.607Z,5.72
2023-01-21T16:35:56.015Z,5.19
2023-01-21T16:38:26.901Z,4.89
2023-01-21T16:41:08.357Z,5.28
2023-01-21T16:44:04.208Z,5.79
2023-01-21T16:46:36.196Z,4.77
2023-01-21T16:49:04.921Z,5.38
2023-01-21T16:51:34.721Z,5.70
2023-01-21T16:54:19.648Z,5.28
2023-01-21T16:56:53.429Z,5.83
2023-01-21T16:59:42.527Z,5.42
2023-01-21T17:02:31.464Z,5.60
2023-01-21T17:05:00.274Z,5.54
2023-01-21T17:07:41.972Z,5.88
2023-01-21T17:10:19.516Z,5.52
2023-01-21T17:13:07.254Z,4.71
2023-01-21T17:15:41.716Z,4.85
2023-01-21T17:18:31.364Z,4.44
2023-01-21T17:21:08.962Z,4.75
2023-01-21T17:23:51.452Z,5.53
2023-01-21T17:26:45.591Z,5.29
2023-01-21T17:29:20.206Z,4.96
2023-01-21T17:31:55.848Z,4.68
2023-01-21T17:34:24.727Z,4.97
2023-01-21T17:36:52.746Z,4.24
2023-01-21T17:39:48.086Z,4.84
2023-01-21T17:42:22.682Z,5.52
2023-01-21T17:44:53.377Z,5.15
2023-01-21T17:47:33.617Z,5.14
2023-01-21T17:50:21.102Z,4.83
2023-01-21T17:52:56.204Z,5.28
2023-01-21T17:55:27.236Z,5.05
2023-01-21T17:57:54.326Z,4.44
2023-01-21T18:00:26.681Z,4.97
2023-01-21T18:02:53.377Z,5.23
2023-01-21T18:05:19.905Z,4.16
2023-01-21T18:07:46.420Z,4.30
2023-01-21T18:10:19.582Z,4.30
2023-01-21T18:12:46.141Z,5.05
2023-01-21T18:15:14.718Z,5.17
2023-01-21T18:17:46.501Z,5.16
2023-01-21T18:20:27.145Z,4.73
2023-01-21T18:22:55.385Z,4.90
2023-01-21T18:25:23.565Z,4.54
2023-01-21T18:27:54.906Z,5.50
2023-01-21T18:30:28.595Z,5.27
2023-01-21T18:32:56.373Z,4.53
2023-01-21T18:35:27.315Z,4.76
2023-01-21T18:37:54.067Z,4.57
2023-01-21T18:40:22.693Z,5.52
2023-01-21T18:42:52.222Z,5.63
2023-01-21T18:45:22.396Z,4.40
2023-01-21T18:47:50.419Z,5.06
2023-01-21T18:50:22.447Z,4.71
2023-01-21T18:52:49.113Z,4.78
2023-01-21T18:55:17.338Z,4.59
2023-01-21T18:57:46.630Z,4.82
2023-01-21T19:00:19.572Z,5.34
2023-01-21T19:02:46.632Z,4.14
2023-01-21T19:05:13.185Z,4.32
2023-01-21T19:07:39.574Z,4.69
2023-01-21T19:10:06.912Z,5.37
2023-01-21T19:12:33.329Z,5.08
2023-01-21T19:15:00.062Z,4.96
2023-01-21T19:17:29.680Z,5.05
2023-01-21T19:19:57.108Z,4.46
2023-01-21T19:22:23.751Z,4.02
2023-01-21T19:24:50.541Z,5.11
2023-01-21T19:27:29.108Z,4.76
2023-01-21T19:29:55.764Z,5.41
2023-01-21T19:32:22.226Z,4.24
2023-01-21T19:34:48.665Z,5.07
2023-01-21T19:37:18.303Z,4.98
2023-01-21T19:39:44.834Z,4.80
2023-01-21T19:42:13.428Z,4.73
2023-01-21T19:44:40.649Z,4.54
2023-01-21T19:47:17.443Z,4.64
2023-01-21T19:49:44.359Z,4.50
2023-01-21T19:52:13.950Z,4.45
2023-01-21T19:54:40.504Z,4.01
2023-01-21T19:57:13.567Z,4.05
2023-01-21T19:59:41.177Z,3.06
2023-01-21T20:02:10.705Z,4.06
2023-01-21T20:04:37.732Z,3.24
2023-01-21T20:07:04.697Z,3.82
2023-01-21T20:09:32.075Z,3.65
2023-01-21T20:11:58.489Z,3.81
2023-01-21T20:14:24.959Z,3.65
2023-01-21T20:16:54.151Z,4.72
2023-01-21T20:19:22.501Z,4.15
2023-01-21T20:22:01.318Z,3.86
2023-01-21T20:24:30.101Z,3.41
2023-01-21T20:26:57.034Z,3.95
2023-01-21T20:29:23.506Z,4.90
2023-01-21T20:31:51.868Z,4.43
2023-01-21T20:34:18.378Z,4.90
2023-01-21T20:36:48.306Z,5.15
2023-01-21T20:39:15.088Z,4.51
2023-01-21T20:41:43.287Z,4.19
2023-01-21T20:44:09.731Z,4.64
2023-01-21T20:46:36.203Z,3.72
2023-01-21T20:49:02.854Z,3.35
2023-01-21T20:51:29.637Z,3.82
2023-01-21T20:53:56.096Z,3.76
2023-01-21T20:56:26.970Z,4.28
2023-01-21T20:58:54.126Z,4.24
2023-01-21T21:01:22.917Z,3.22
2023-01-21T21:03:49.954Z,2.78
2023-01-21T21:06:28.680Z,3.81
2023-01-21T21:08:55.478Z,3.73
2023-01-21T21:11:22.058Z,3.87
2023-01-21T21:13:51.783Z,3.89
2023-01-21T21:16:21.703Z,3.28
2023-01-21T21:18:48.851Z,3.90
2023-01-21T21:21:16.661Z,3.88
2023-01-21T21:23:46.570Z,3.34
2023-01-21T21:26:18.366Z,3.68
2023-01-21T21:28:45.896Z,3.35
2023-01-21T21:31:17.249Z,3.23
2023-01-21T21:33:43.897Z,3.27
2023-01-21T21:36:13.647Z,3.77
2023-01-21T21:38:40.374Z,3.82
2023-01-21T21:41:25.390Z,2.24
2023-01-21T21:43:51.785Z,3.75
2023-01-21T21:46:36.489Z,2.93
2023-01-21T21:49:02.894Z,3.75
2023-01-21T21:51:31.664Z,2.89
2023-01-21T21:53:58.097Z,3.65
2023-01-21T21:56:24.577Z,3.09
2023-01-21T21:58:51.447Z,3.39
2023-01-21T22:01:20.527Z,3.46
2023-01-21T22:03:47.304Z,4.05
2023-01-21T22:06:14.644Z,3.53
2023-01-21T22:08:42.598Z,3.56
2023-01-21T22:11:15.040Z,3.68
2023-01-21T22:13:43.435Z,3.13
2023-01-21T22:16:14.939Z,3.40
2023-01-21T22:18:41.982Z,3.54
2023-01-21T22:21:16.771Z,3.31
2023-01-21T22:23:43.433Z,3.19
2023-01-21T22:26:15.323Z,2.71
2023-01-21T22:28:43.312Z,3.69
2023-01-21T22:31:13.725Z,2.76
2023-01-21T22:33:40.409Z,3.69
2023-01-21T22:36:09.396Z,3.00
2023-01-21T22:38:38.971Z,2.50
2023-01-21T22:41:07.695Z,2.20
2023-01-21T22:43:34.747Z,2.89
2023-01-21T22:46:01.714Z,3.52
2023-01-21T22:48:28.312Z,3.09
2023-01-21T22:50:57.143Z,3.77
2023-01-21T22:53:24.452Z,3.77
2023-01-21T22:55:59.939Z,3.69
2023-01-21T22:58:28.330Z,3.73
2023-01-21T23:00:55.574Z,3.62
2023-01-21T23:03:22.938Z,2.90
2023-01-21T23:05:50.241Z,3.34
2023-01-21T23:08:17.729Z,3.38
2023-01-21T23:10:45.022Z,3.86
2023-01-21T23:13:15.933Z,3.49
2023-01-21T23:15:43.891Z,3.52
2023-01-21T23:18:10.567Z,3.56
2023-01-21T23:20:37.254Z,2.38
2023-01-21T23:23:03.659Z,2.95
2023-01-21T23:25:30.052Z,3.57
2023-01-21T23:27:56.471Z,2.55
2023-01-21T23:30:22.863Z,2.44
2023-01-21T23:32:49.268Z,3.06
2023-01-21T23:35:15.892Z,3.29
2023-01-21T23:37:42.282Z,2.20
2023-01-21T23:40:09.158Z,3.14
2023-01-21T23:42:35.542Z,3.55
2023-01-21T23:45:02.308Z,3.06
2023-01-21T23:47:29.026Z,3.37
2023-01-21T23:49:55.439Z,2.04
2023-01-21T23:52:21.829Z,2.81
2023-01-21T23:54:48.209Z,2.91
2023-01-21T23:57:14.674Z,2.19
2023-01-21T23:59:41.157Z,3.35
